Virginia, Washington
Current Conditions -  °F | °C
As of 3:35 PM on Saturday 20 Dec 2014 (Local Time) from KPWT Reporting Station
Overcast Overcast  
Wind Chill: 42°   Ceiling: 500
Heat Index: 48°   Visibility: 7mi
Dew Point: 48°   Wind: 16mph
Humidity: 100%   Direction: 180°S
Pressure: 29.48"   Gusts: NA
Location:  47.7571°N, 122.623°W
Report Text: KPWT 202335Z AUTO 18014KT 7SM OVC005 09/09 A2948 RMK AO1 P0005
Loading
Personal Weather Stations






























Interactive Weather Map New forecast layout! Learn more

10-Day Weather Forecast

Advertisements
Track Severe Weather on mobile